createdAt,value
2023-05-07T00:01:01.575Z,10.39
2023-05-07T00:03:30.937Z,10.41
2023-05-07T00:05:58.935Z,9.75
2023-05-07T00:08:26.912Z,10.10
2023-05-07T00:10:55.109Z,10.29
2023-05-07T00:13:23.191Z,10.42
2023-05-07T00:15:51.184Z,10.48
2023-05-07T00:18:22.101Z,10.47
2023-05-07T00:20:51.397Z,10.31
2023-05-07T00:23:19.310Z,10.09
2023-05-07T00:25:47.220Z,10.28
2023-05-07T00:28:15.155Z,10.23
2023-05-07T00:30:43.051Z,10.40
2023-05-07T00:33:11.015Z,10.23
2023-05-07T00:35:38.938Z,10.10
2023-05-07T00:38:08.227Z,10.27
2023-05-07T00:40:36.298Z,10.28
2023-05-07T00:43:04.669Z,10.27
2023-05-07T00:45:32.835Z,10.27
2023-05-07T00:48:02.571Z,10.31
2023-05-07T00:50:31.100Z,10.32
2023-05-07T00:52:59.182Z,10.27
2023-05-07T00:55:28.712Z,10.31
2023-05-07T00:57:56.628Z,10.28
2023-05-07T01:00:25.775Z,10.22
2023-05-07T01:02:54.164Z,10.17
2023-05-07T01:05:24.540Z,10.17
2023-05-07T01:07:53.388Z,10.21
2023-05-07T01:10:21.528Z,9.94
2023-05-07T01:12:51.773Z,10.12
2023-05-07T01:15:20.171Z,10.10
2023-05-07T01:17:48.143Z,10.18
2023-05-07T01:20:16.947Z,10.06
2023-05-07T01:22:46.621Z,10.18
2023-05-07T01:25:14.693Z,10.24
2023-05-07T01:27:42.617Z,10.32
2023-05-07T01:30:11.469Z,10.13
2023-05-07T01:32:43.319Z,9.86
2023-05-07T01:35:13.682Z,9.95
2023-05-07T01:37:41.976Z,10.03
2023-05-07T01:40:12.379Z,9.99
2023-05-07T01:42:40.637Z,9.99
2023-05-07T01:45:09.502Z,9.98
2023-05-07T01:47:38.644Z,9.78
2023-05-07T01:50:09.675Z,9.86
2023-05-07T01:52:38.643Z,9.96
2023-05-07T01:55:08.156Z,9.98
2023-05-07T01:57:37.573Z,9.88
2023-05-07T02:00:06.472Z,10.05
2023-05-07T02:02:34.482Z,10.06
2023-05-07T02:05:03.000Z,10.10
2023-05-07T02:07:30.968Z,9.94
2023-05-07T02:09:58.882Z,9.75
2023-05-07T02:12:26.788Z,9.80
2023-05-07T02:14:56.116Z,9.90
2023-05-07T02:17:24.036Z,9.99
2023-05-07T02:19:51.930Z,10.02
2023-05-07T02:22:19.953Z,10.06
2023-05-07T02:24:47.838Z,9.99
2023-05-07T02:27:15.785Z,9.78
2023-05-07T02:29:43.647Z,9.71
2023-05-07T02:32:13.057Z,9.72
2023-05-07T02:34:40.948Z,9.65
2023-05-07T02:37:08.836Z,9.88
2023-05-07T02:39:38.207Z,9.69
2023-05-07T02:42:06.126Z,9.47
2023-05-07T02:44:34.035Z,9.66
2023-05-07T02:47:01.979Z,9.51
2023-05-07T02:49:31.241Z,9.60
2023-05-07T02:51:59.135Z,9.69
2023-05-07T02:54:27.040Z,9.77
2023-05-07T02:56:54.940Z,9.97
2023-05-07T02:59:22.820Z,9.68
2023-05-07T03:01:50.793Z,9.86
2023-05-07T03:04:18.772Z,9.79
2023-05-07T03:06:48.088Z,9.79
2023-05-07T03:09:16.007Z,9.83
2023-05-07T03:11:43.944Z,9.91
2023-05-07T03:14:11.861Z,9.82
2023-05-07T03:16:40.592Z,9.66
2023-05-07T03:19:08.550Z,9.83
2023-05-07T03:21:36.507Z,9.92
2023-05-07T03:24:06.482Z,9.99
2023-05-07T03:26:34.372Z,10.00
2023-05-07T03:29:02.282Z,9.96
2023-05-07T03:31:30.224Z,9.88
2023-05-07T03:33:59.170Z,9.89
2023-05-07T03:36:27.683Z,9.96
2023-05-07T03:38:55.607Z,9.91
2023-05-07T03:41:25.062Z,9.92
2023-05-07T03:43:52.943Z,9.91
2023-05-07T03:46:20.970Z,9.97
2023-05-07T03:48:48.938Z,9.89
2023-05-07T03:51:16.825Z,9.87
2023-05-07T03:53:44.801Z,9.70
2023-05-07T03:56:12.654Z,9.90
2023-05-07T03:58:41.920Z,9.68
2023-05-07T04:01:09.886Z,9.93
2023-05-07T04:03:38.036Z,9.98
2023-05-07T04:06:06.166Z,10.04
2023-05-07T04:08:34.008Z,9.99
2023-05-07T04:11:01.930Z,9.96
2023-05-07T04:13:29.874Z,9.89
2023-05-07T04:16:00.135Z,9.81
2023-05-07T04:18:28.116Z,9.84
2023-05-07T04:20:56.148Z,9.97
2023-05-07T04:23:24.132Z,9.93
2023-05-07T04:25:52.780Z,9.95
2023-05-07T04:28:20.705Z,9.94
2023-05-07T04:30:48.669Z,9.91
2023-05-07T04:33:18.365Z,9.72
2023-05-07T04:35:47.265Z,9.73
2023-05-07T04:38:15.231Z,9.65
2023-05-07T04:40:43.364Z,9.84
2023-05-07T04:43:11.360Z,9.94
2023-05-07T04:45:41.594Z,9.94
2023-05-07T04:48:10.904Z,9.92
2023-05-07T04:50:40.194Z,9.92
2023-05-07T04:53:08.082Z,9.93
2023-05-07T04:55:36.010Z,9.72
2023-05-07T04:58:04.173Z,9.81
2023-05-07T05:00:32.196Z,9.80
2023-05-07T05:03:00.245Z,9.93
2023-05-07T05:05:28.239Z,9.78
2023-05-07T05:07:57.504Z,9.84
2023-05-07T05:10:25.876Z,9.97
2023-05-07T05:12:53.884Z,9.93
2023-05-07T05:15:21.840Z,9.98
2023-05-07T05:17:49.770Z,9.96
2023-05-07T05:20:17.861Z,9.95
2023-05-07T05:22:45.772Z,10.02
2023-05-07T05:25:15.202Z,9.84
2023-05-07T05:27:43.125Z,9.95
2023-05-07T05:30:12.077Z,9.97
2023-05-07T05:32:40.214Z,10.00
2023-05-07T05:35:08.918Z,10.07
2023-05-07T05:37:36.850Z,9.83
2023-05-07T05:40:05.718Z,9.75
2023-05-07T05:42:35.001Z,9.98
2023-05-07T05:45:02.935Z,9.95
2023-05-07T05:47:30.959Z,10.00
2023-05-07T05:49:58.904Z,9.95
2023-05-07T05:52:26.870Z,9.97
2023-05-07T05:54:55.436Z,9.76
2023-05-07T05:57:23.319Z,10.00
2023-05-07T05:59:53.088Z,10.04
2023-05-07T06:02:21.097Z,10.11
2023-05-07T06:04:49.035Z,10.16
2023-05-07T06:07:16.999Z,10.11
2023-05-07T06:09:45.258Z,10.16
2023-05-07T06:12:13.849Z,10.19
2023-05-07T06:14:41.946Z,10.11
2023-05-07T06:17:11.246Z,10.10
2023-05-07T06:19:39.142Z,10.17
2023-05-07T06:22:07.066Z,10.18
2023-05-07T06:24:34.985Z,10.15
2023-05-07T06:27:02.944Z,10.05
2023-05-07T06:29:32.601Z,10.05
2023-05-07T06:32:08.820Z,10.12
2023-05-07T06:34:38.450Z,10.26
2023-05-07T06:37:06.408Z,10.26
2023-05-07T06:39:34.603Z,10.31
2023-05-07T06:42:02.561Z,10.20
2023-05-07T06:44:30.456Z,10.25
2023-05-07T06:46:58.811Z,10.24
2023-05-07T06:49:26.709Z,10.26
2023-05-07T06:51:56.572Z,10.37
2023-05-07T06:54:24.864Z,10.29
2023-05-07T06:56:52.799Z,10.37
2023-05-07T06:59:21.378Z,10.33
2023-05-07T07:01:49.354Z,10.22
2023-05-07T07:04:17.331Z,10.26
2023-05-07T07:06:45.278Z,10.31
2023-05-07T07:09:14.573Z,10.48
2023-05-07T07:11:42.519Z,10.38
2023-05-07T07:14:10.787Z,10.56
2023-05-07T07:16:38.859Z,10.58
2023-05-07T07:19:06.872Z,10.66
2023-05-07T07:21:34.799Z,10.65
2023-05-07T07:24:02.701Z,10.63
2023-05-07T07:26:32.355Z,10.65
2023-05-07T07:29:00.223Z,10.68
2023-05-07T07:31:28.166Z,10.74
2023-05-07T07:33:56.074Z,10.79
2023-05-07T07:36:31.980Z,10.79
2023-05-07T07:39:06.748Z,10.35
2023-05-07T07:41:36.039Z,10.54
2023-05-07T07:44:08.610Z,10.55
2023-05-07T07:46:36.749Z,10.72
2023-05-07T07:49:04.631Z,10.84
2023-05-07T07:51:32.600Z,10.67
2023-05-07T07:54:00.813Z,10.72
2023-05-07T07:56:29.187Z,10.85
2023-05-07T07:58:58.711Z,10.85
2023-05-07T08:01:27.032Z,10.94
2023-05-07T08:03:55.274Z,10.99
2023-05-07T08:06:23.346Z,10.99
2023-05-07T08:08:51.252Z,10.66
2023-05-07T08:11:19.252Z,10.86
2023-05-07T08:13:48.113Z,11.02
2023-05-07T08:16:17.451Z,11.02
2023-05-07T08:18:45.650Z,11.16
2023-05-07T08:21:13.637Z,11.17
2023-05-07T08:23:41.545Z,11.21
2023-05-07T08:26:10.013Z,11.24
2023-05-07T08:28:37.933Z,11.12
2023-05-07T08:31:06.010Z,11.22
2023-05-07T08:33:35.312Z,11.21
2023-05-07T08:36:03.195Z,11.23
2023-05-07T08:38:31.232Z,11.16
2023-05-07T08:40:59.144Z,11.33
2023-05-07T08:43:29.031Z,11.35
2023-05-07T08:45:57.760Z,11.35
2023-05-07T08:48:28.048Z,11.36
2023-05-07T08:50:57.343Z,11.50
2023-05-07T08:53:25.288Z,11.54
2023-05-07T08:55:53.585Z,11.62
2023-05-07T08:58:21.580Z,11.70
2023-05-07T09:00:49.561Z,11.80
2023-05-07T09:03:17.757Z,11.77
2023-05-07T09:05:45.899Z,11.84
2023-05-07T09:08:17.388Z,11.84
2023-05-07T09:10:45.430Z,11.94
2023-05-07T09:13:15.578Z,12.00
2023-05-07T09:15:43.726Z,12.03
2023-05-07T09:18:11.701Z,12.07
2023-05-07T09:20:39.810Z,12.02
2023-05-07T09:23:08.983Z,12.13
2023-05-07T09:25:39.027Z,12.19
2023-05-07T09:28:08.246Z,12.29
2023-05-07T09:30:36.547Z,12.31
2023-05-07T09:33:28.825Z,12.28
2023-05-07T09:35:56.804Z,12.25
2023-05-07T09:38:24.832Z,12.32
2023-05-07T09:41:04.192Z,12.34
2023-05-07T09:43:35.435Z,12.41
2023-05-07T09:46:08.842Z,12.38
2023-05-07T09:48:39.664Z,12.60
2023-05-07T09:51:18.109Z,12.66
2023-05-07T09:53:47.361Z,12.59
2023-05-07T09:56:17.755Z,12.55
2023-05-07T09:58:46.220Z,12.51
2023-05-07T10:01:15.036Z,12.57
2023-05-07T10:03:44.522Z,12.60
2023-05-07T10:06:12.867Z,12.65
2023-05-07T10:08:40.795Z,12.72
2023-05-07T10:11:08.785Z,12.84
2023-05-07T10:13:39.132Z,12.88
2023-05-07T10:16:07.607Z,12.91
2023-05-07T10:18:35.950Z,12.93
2023-05-07T10:21:09.366Z,12.95
2023-05-07T10:23:37.713Z,12.98
2023-05-07T10:26:07.630Z,12.99
2023-05-07T10:28:40.959Z,13.03
2023-05-07T10:31:21.540Z,13.25
2023-05-07T10:33:49.864Z,13.29
2023-05-07T10:36:17.927Z,13.15
2023-05-07T10:38:45.972Z,13.27
2023-05-07T10:41:14.128Z,13.31
2023-05-07T10:43:45.074Z,13.29
2023-05-07T10:46:14.322Z,13.30
2023-05-07T10:49:12.243Z,13.59
2023-05-07T10:51:41.171Z,13.58
2023-05-07T10:54:22.689Z,13.64
2023-05-07T10:56:52.132Z,13.48
2023-05-07T10:59:36.060Z,13.81
2023-05-07T11:02:07.308Z,13.83
2023-05-07T11:04:36.250Z,13.97
2023-05-07T11:07:28.043Z,14.10
2023-05-07T11:10:05.139Z,14.28
2023-05-07T11:12:52.926Z,14.40
2023-05-07T11:15:55.574Z,14.49
2023-05-07T11:18:23.632Z,14.41
2023-05-07T11:20:56.286Z,14.83
2023-05-07T11:24:09.841Z,15.06
2023-05-07T11:26:48.315Z,14.93
2023-05-07T11:29:20.140Z,14.60
2023-05-07T11:31:55.263Z,14.85
2023-05-07T11:34:24.775Z,14.84
2023-05-07T11:36:52.943Z,15.01
2023-05-07T11:39:31.083Z,15.26
2023-05-07T11:41:59.362Z,15.40
2023-05-07T11:44:27.299Z,15.41
2023-05-07T11:46:56.696Z,15.14
2023-05-07T11:49:27.684Z,15.19
2023-05-07T11:51:55.925Z,15.22
2023-05-07T11:54:23.867Z,15.16
2023-05-07T11:56:51.792Z,15.36
2023-05-07T11:59:20.453Z,15.45
2023-05-07T12:01:49.225Z,15.20
2023-05-07T12:04:23.150Z,15.32
2023-05-07T12:06:52.047Z,15.34
2023-05-07T12:09:19.953Z,15.41
2023-05-07T12:11:48.751Z,14.95
2023-05-07T12:14:18.017Z,15.45
2023-05-07T12:16:46.197Z,15.50
2023-05-07T12:19:15.840Z,15.74
2023-05-07T12:21:45.441Z,15.89
2023-05-07T12:24:13.380Z,15.60
2023-05-07T12:26:42.182Z,15.62
2023-05-07T12:29:10.088Z,15.72
2023-05-07T12:31:38.122Z,15.57
2023-05-07T12:34:06.099Z,15.80
2023-05-07T12:36:39.415Z,15.90
2023-05-07T12:39:09.704Z,16.07
2023-05-07T12:41:55.848Z,15.65
2023-05-07T12:44:24.840Z,15.82
2023-05-07T12:46:53.353Z,16.10
2023-05-07T12:49:22.487Z,16.48
2023-05-07T12:51:52.023Z,16.54
2023-05-07T12:54:31.786Z,16.34
2023-05-07T12:57:04.283Z,17.07
2023-05-07T12:59:36.137Z,17.21
2023-05-07T13:02:04.129Z,17.22
2023-05-07T13:04:32.061Z,17.15
2023-05-07T13:07:00.430Z,17.26
2023-05-07T13:09:30.019Z,17.22
2023-05-07T13:12:02.391Z,17.36
2023-05-07T13:14:30.321Z,17.52
2023-05-07T13:16:58.217Z,17.40
2023-05-07T13:19:26.244Z,17.13
2023-05-07T13:21:54.133Z,17.07
2023-05-07T13:24:22.054Z,17.57
2023-05-07T13:26:50.049Z,17.79
2023-05-07T13:29:19.382Z,18.07
2023-05-07T13:31:48.458Z,17.91
2023-05-07T13:34:17.779Z,17.46
2023-05-07T13:36:45.671Z,17.68
2023-05-07T13:39:13.714Z,17.53
2023-05-07T13:41:41.617Z,17.62
2023-05-07T13:44:09.597Z,17.82
2023-05-07T13:46:39.082Z,17.82
2023-05-07T13:49:07.000Z,17.42
2023-05-07T13:51:34.950Z,16.78
2023-05-07T13:54:02.899Z,17.30
2023-05-07T13:56:32.400Z,17.05
2023-05-07T13:59:01.054Z,17.30
2023-05-07T14:01:29.394Z,17.12
2023-05-07T14:04:00.577Z,17.17
2023-05-07T14:06:28.659Z,17.09
2023-05-07T14:08:59.044Z,17.11
2023-05-07T14:11:27.094Z,17.20
2023-05-07T14:13:55.042Z,17.11
2023-05-07T14:16:23.049Z,17.27
2023-05-07T14:18:51.025Z,17.09
2023-05-07T14:21:20.453Z,16.80
2023-05-07T14:23:48.320Z,17.44
2023-05-07T14:26:16.235Z,17.51
2023-05-07T14:28:47.301Z,17.57
2023-05-07T14:31:15.558Z,17.58
2023-05-07T14:33:43.511Z,17.64
2023-05-07T14:36:11.438Z,17.75
2023-05-07T14:38:40.921Z,17.54
2023-05-07T14:41:08.884Z,17.72
2023-05-07T14:43:36.778Z,17.93
2023-05-07T14:46:04.729Z,17.92
2023-05-07T14:48:32.638Z,17.70
2023-05-07T14:51:00.586Z,17.83
2023-05-07T14:53:28.461Z,17.84
2023-05-07T14:55:57.766Z,17.79
2023-05-07T14:58:25.961Z,17.88
2023-05-07T15:00:53.876Z,17.90
2023-05-07T15:03:22.893Z,17.86
2023-05-07T15:05:52.380Z,17.69
2023-05-07T15:08:20.600Z,17.76
2023-05-07T15:10:48.598Z,17.78
2023-05-07T15:13:17.940Z,17.78
2023-05-07T15:15:46.976Z,17.33
2023-05-07T15:18:15.053Z,17.75
2023-05-07T15:20:43.663Z,17.86
2023-05-07T15:23:13.255Z,17.44
2023-05-07T15:25:41.257Z,17.45
2023-05-07T15:28:09.630Z,17.51
2023-05-07T15:30:38.915Z,17.37
2023-05-07T15:33:06.914Z,17.28
2023-05-07T15:35:34.950Z,17.58
2023-05-07T15:38:04.550Z,17.89
2023-05-07T15:40:33.597Z,18.40
2023-05-07T15:43:01.570Z,18.56
2023-05-07T15:45:30.303Z,18.48
2023-05-07T15:47:59.746Z,17.94
2023-05-07T15:50:27.767Z,18.22
2023-05-07T15:52:55.674Z,17.97
2023-05-07T15:55:23.790Z,19.11
2023-05-07T15:57:51.701Z,19.12
2023-05-07T16:00:20.133Z,19.04
2023-05-07T16:02:48.400Z,18.65
2023-05-07T16:05:17.837Z,19.48
2023-05-07T16:07:45.831Z,19.98
2023-05-07T16:10:13.768Z,20.27
2023-05-07T16:12:41.734Z,20.14
2023-05-07T16:15:10.204Z,20.12
2023-05-07T16:17:38.196Z,19.98
2023-05-07T16:20:09.213Z,19.85
2023-05-07T16:22:38.626Z,19.76
2023-05-07T16:25:07.760Z,19.80
2023-05-07T16:27:35.683Z,20.00
2023-05-07T16:30:03.620Z,19.95
2023-05-07T16:32:31.571Z,20.12
2023-05-07T16:34:59.616Z,19.77
2023-05-07T16:37:27.505Z,19.63
2023-05-07T16:39:58.247Z,19.79
2023-05-07T16:42:26.267Z,20.08
2023-05-07T16:44:54.652Z,20.42
2023-05-07T16:47:22.653Z,20.66
2023-05-07T16:49:50.652Z,21.38
2023-05-07T16:52:18.643Z,20.76
2023-05-07T16:54:46.536Z,20.56
2023-05-07T16:57:15.884Z,20.63
2023-05-07T16:59:43.778Z,20.18
2023-05-07T17:02:11.942Z,20.09
2023-05-07T17:04:39.873Z,20.03
2023-05-07T17:07:07.829Z,19.93
2023-05-07T17:09:35.752Z,19.93
2023-05-07T17:12:03.969Z,19.77
2023-05-07T17:14:33.314Z,19.82
2023-05-07T17:17:01.248Z,19.72
2023-05-07T17:19:29.167Z,19.80
2023-05-07T17:21:57.616Z,20.21
2023-05-07T17:24:25.668Z,20.03
2023-05-07T17:26:53.555Z,19.86
2023-05-07T17:29:21.422Z,20.16
2023-05-07T17:31:50.805Z,20.07
2023-05-07T17:34:18.718Z,19.43
2023-05-07T17:36:46.657Z,19.34
2023-05-07T17:39:14.553Z,18.81
2023-05-07T17:41:42.530Z,18.62
2023-05-07T17:44:10.427Z,17.99
2023-05-07T17:46:38.287Z,17.64
2023-05-07T17:49:07.605Z,17.74
2023-05-07T17:51:46.267Z,17.62
2023-05-07T17:54:18.348Z,17.45
2023-05-07T17:56:46.305Z,17.33
2023-05-07T17:59:14.220Z,17.04
2023-05-07T18:01:42.399Z,17.09
2023-05-07T18:04:11.778Z,16.79
2023-05-07T18:06:41.684Z,16.94
2023-05-07T18:09:09.638Z,16.95
2023-05-07T18:11:37.887Z,16.90
2023-05-07T18:14:05.862Z,16.83
2023-05-07T18:16:34.038Z,16.68
2023-05-07T18:19:02.057Z,16.60
2023-05-07T18:21:32.649Z,16.55
2023-05-07T18:24:00.701Z,16.57
2023-05-07T18:26:28.582Z,16.39
2023-05-07T18:28:56.486Z,16.35
2023-05-07T18:31:24.541Z,16.14
2023-05-07T18:33:53.241Z,16.19
2023-05-07T18:36:21.137Z,16.29
2023-05-07T18:38:50.410Z,16.24
2023-05-07T18:41:18.326Z,16.03
2023-05-07T18:43:46.241Z,15.92
2023-05-07T18:46:14.141Z,15.91
2023-05-07T18:48:42.058Z,15.85
2023-05-07T18:51:12.654Z,15.73
2023-05-07T18:53:40.711Z,15.72
2023-05-07T18:56:10.007Z,15.69
2023-05-07T18:58:37.878Z,15.60
2023-05-07T19:01:08.430Z,15.62
2023-05-07T19:03:36.742Z,15.58
2023-05-07T19:06:05.998Z,15.55
2023-05-07T19:08:34.249Z,15.41
2023-05-07T19:11:03.427Z,15.39
2023-05-07T19:13:32.845Z,15.35
2023-05-07T19:16:00.850Z,15.29
2023-05-07T19:18:29.763Z,15.12
2023-05-07T19:20:57.747Z,15.16
2023-05-07T19:23:26.063Z,15.07
2023-05-07T19:25:53.981Z,15.06
2023-05-07T19:28:22.054Z,15.02
2023-05-07T19:30:52.714Z,14.98
2023-05-07T19:33:20.789Z,14.93
2023-05-07T19:35:48.718Z,14.87
2023-05-07T19:38:16.624Z,14.79
2023-05-07T19:40:44.496Z,14.72
2023-05-07T19:43:12.400Z,14.66
2023-05-07T19:45:42.893Z,14.60
2023-05-07T19:48:12.227Z,14.55
2023-05-07T19:50:40.578Z,14.50
2023-05-07T19:53:08.602Z,14.55
2023-05-07T19:55:36.512Z,14.53
2023-05-07T19:58:04.506Z,14.47
2023-05-07T20:00:33.961Z,14.45
2023-05-07T20:03:02.062Z,14.44
2023-05-07T20:05:31.436Z,14.39
2023-05-07T20:08:00.236Z,14.28
2023-05-07T20:10:28.274Z,14.29
2023-05-07T20:12:56.389Z,14.24
2023-05-07T20:15:24.314Z,14.21
2023-05-07T20:17:52.256Z,14.24
2023-05-07T20:20:20.416Z,14.23
2023-05-07T20:22:49.813Z,14.19
2023-05-07T20:25:17.709Z,14.15
2023-05-07T20:27:45.691Z,14.13
2023-05-07T20:30:14.729Z,14.11
2023-05-07T20:32:43.492Z,14.06
2023-05-07T20:35:11.714Z,13.99
2023-05-07T20:37:40.385Z,13.98
2023-05-07T20:40:11.243Z,13.97
2023-05-07T20:42:39.467Z,13.96
2023-05-07T20:45:08.264Z,13.92
2023-05-07T20:47:36.310Z,13.89
2023-05-07T20:50:04.524Z,13.87
2023-05-07T20:52:32.414Z,13.82
2023-05-07T20:55:00.326Z,13.80
2023-05-07T20:57:29.636Z,13.76
2023-05-07T20:59:57.547Z,13.61
2023-05-07T21:02:25.433Z,13.55
2023-05-07T21:04:53.454Z,13.60
2023-05-07T21:07:21.371Z,13.56
2023-05-07T21:09:49.248Z,13.56
2023-05-07T21:12:17.148Z,13.56
2023-05-07T21:14:46.439Z,13.41
2023-05-07T21:17:14.351Z,13.41
2023-05-07T21:19:43.358Z,13.41
2023-05-07T21:22:11.325Z,13.37
2023-05-07T21:24:41.243Z,13.25
2023-05-07T21:27:09.273Z,13.23
2023-05-07T21:29:37.231Z,13.20
2023-05-07T21:32:06.760Z,13.13
2023-05-07T21:34:35.269Z,13.00
2023-05-07T21:37:03.199Z,13.01
2023-05-07T21:39:31.121Z,12.97
2023-05-07T21:41:59.013Z,13.00
2023-05-07T21:44:28.802Z,13.05
2023-05-07T21:46:56.748Z,12.97
2023-05-07T21:49:26.177Z,13.01
2023-05-07T21:51:54.055Z,12.93
2023-05-07T21:54:21.940Z,12.87
2023-05-07T21:56:50.234Z,12.87
2023-05-07T21:59:18.266Z,12.84
2023-05-07T22:01:46.165Z,12.82
2023-05-07T22:04:14.192Z,12.71
2023-05-07T22:06:43.463Z,12.56
2023-05-07T22:09:11.818Z,12.48
2023-05-07T22:11:39.803Z,12.46
2023-05-07T22:14:07.721Z,12.46
2023-05-07T22:16:35.702Z,12.43
2023-05-07T22:19:03.701Z,12.35
2023-05-07T22:21:31.654Z,12.28
2023-05-07T22:24:00.912Z,12.22
2023-05-07T22:26:28.848Z,12.19
2023-05-07T22:28:56.793Z,12.14
2023-05-07T22:31:24.701Z,12.10
2023-05-07T22:33:52.668Z,11.95
2023-05-07T22:36:20.587Z,12.07
2023-05-07T22:38:48.472Z,12.03
2023-05-07T22:41:17.880Z,11.95
2023-05-07T22:43:45.820Z,11.94
2023-05-07T22:46:13.780Z,11.90
2023-05-07T22:48:41.702Z,11.96
2023-05-07T22:51:14.040Z,11.96
2023-05-07T22:53:42.015Z,11.88
2023-05-07T22:56:11.133Z,11.84
2023-05-07T22:58:40.454Z,11.69
2023-05-07T23:01:13.951Z,11.69
2023-05-07T23:03:42.250Z,11.73
2023-05-07T23:06:10.684Z,11.66
2023-05-07T23:08:38.616Z,11.44
2023-05-07T23:11:06.729Z,11.44
2023-05-07T23:13:35.099Z,11.42
2023-05-07T23:16:04.419Z,11.48
2023-05-07T23:18:32.697Z,11.31
2023-05-07T23:21:00.594Z,11.29
2023-05-07T23:23:33.625Z,11.14
2023-05-07T23:26:01.600Z,11.10
2023-05-07T23:28:29.525Z,11.05
2023-05-07T23:30:57.591Z,11.03
2023-05-07T23:33:26.940Z,11.04
2023-05-07T23:36:00.385Z,10.90
2023-05-07T23:38:28.266Z,10.96
2023-05-07T23:40:56.213Z,11.09
2023-05-07T23:43:24.599Z,11.30
2023-05-07T23:45:52.679Z,11.37
2023-05-07T23:48:20.852Z,11.36
2023-05-07T23:50:50.172Z,11.07
2023-05-07T23:53:18.055Z,10.88
2023-05-07T23:55:45.937Z,10.81
2023-05-07T23:58:14.204Z,11.04
